UNNT/OVB METAR and TAF weather

Enter ICAO airport designator
Station Type Date Time Source
UNNT METAR 2021/07/29 02:00 UTC NOAA

UNNT 290200Z 16003MPS CAVOK 18/14 Q1009 R25/150060 R34/////// NOSIG RMK QFE746/0995


Station Type Date Time Source
UNNT Decoded METAR 2021/07/29 02:00 UTC NOAA

Station name not available
Jul 28, 2021 - 10:00 PM EDT / 2021.07.29 0200 UTC
Wind: from the SSE (160 degrees) at 7 MPH (6 KT):0
Visibility: greater than 7 mile(s):0
Temperature: 64 F (18 C)
Dew Point: 57 F (14 C)
Relative Humidity: 77%
Pressure (altimeter): 29.80 in. Hg (1009 hPa)
ob: UNNT 290200Z 16003MPS CAVOK 18/14 Q1009 R25/150060 R34/////// NOSIG RMK QFE746/0995
cycle: 2

Station Type Date Time Source
UNNT TAF 2021/07/28 21:22 UTC NOAA

TAF UNNT 282000Z 2821/2921 14003MPS 1500 BR BKN040CB
TEMPO 2821/2901 0150 FG BKN002 BKN016CB
FM290100 19003G08MPS 8000 BKN030CB
TEMPO 2917/2921 30005G10MPS -TSRA

Example: see airport list